createdAt,value
2019-02-03T00:00:15.993Z,1.20
2019-02-03T00:02:44.414Z,1.20
2019-02-03T00:05:13.061Z,1.10
2019-02-03T00:07:41.490Z,1.20
2019-02-03T00:10:10.409Z,1.20
2019-02-03T00:12:38.815Z,1.20
2019-02-03T00:15:11.930Z,1.10
2019-02-03T00:17:40.590Z,1.10
2019-02-03T00:20:11.063Z,1.10
2019-02-03T00:22:40.009Z,1.10
2019-02-03T00:25:09.762Z,1.10
2019-02-03T00:27:38.168Z,1.00
2019-02-03T00:30:12.055Z,1.10
2019-02-03T00:32:40.472Z,1.10
2019-02-03T00:35:09.597Z,1.10
2019-02-03T00:37:38.268Z,1.10
2019-02-03T00:40:11.913Z,1.10
2019-02-03T00:42:40.391Z,1.10
2019-02-03T00:45:11.734Z,1.00
2019-02-03T00:47:40.513Z,1.10
2019-02-03T00:50:12.408Z,1.00
2019-02-03T00:52:40.798Z,1.00
2019-02-03T00:55:12.323Z,1.00
2019-02-03T00:57:40.759Z,1.00
2019-02-03T01:00:12.681Z,1.00
2019-02-03T01:02:41.171Z,1.00
2019-02-03T01:05:12.942Z,1.00
2019-02-03T01:07:41.631Z,1.00
2019-02-03T01:10:18.939Z,1.00
2019-02-03T01:12:47.882Z,1.00
2019-02-03T01:15:16.354Z,1.00
2019-02-03T01:17:44.825Z,1.00
2019-02-03T01:20:15.947Z,1.00
2019-02-03T01:22:44.347Z,1.00
2019-02-03T01:25:15.593Z,1.00
2019-02-03T01:27:44.429Z,1.00
2019-02-03T01:30:23.863Z,1.00
2019-02-03T01:32:52.433Z,1.00
2019-02-03T01:35:20.839Z,1.00
2019-02-03T01:37:49.242Z,1.00
2019-02-03T01:40:19.672Z,1.00
2019-02-03T01:42:48.521Z,1.00
2019-02-03T01:45:18.874Z,1.00
2019-02-03T01:47:47.606Z,1.00
2019-02-03T01:50:16.439Z,1.00
2019-02-03T01:52:45.556Z,1.00
2019-02-03T01:55:22.795Z,1.00
2019-02-03T01:57:51.266Z,1.00
2019-02-03T02:00:25.017Z,1.00
2019-02-03T02:02:53.556Z,1.00
2019-02-03T02:05:22.102Z,0.90
2019-02-03T02:07:52.055Z,0.90
2019-02-03T02:10:25.956Z,0.90
2019-02-03T02:12:54.537Z,1.00
2019-02-03T02:15:23.054Z,1.00
2019-02-03T02:17:52.128Z,0.90
2019-02-03T02:20:25.343Z,0.90
2019-02-03T02:22:53.803Z,0.90
2019-02-03T02:25:22.242Z,0.90
2019-02-03T02:27:50.729Z,0.90
2019-02-03T02:30:24.214Z,0.90
2019-02-03T02:32:52.708Z,0.90
2019-02-03T02:35:21.122Z,0.90
2019-02-03T02:37:49.597Z,0.90
2019-02-03T02:40:25.324Z,0.90
2019-02-03T02:42:54.217Z,0.90
2019-02-03T02:45:23.090Z,0.90
2019-02-03T02:47:51.570Z,0.90
2019-02-03T02:50:28.126Z,0.90
2019-02-03T02:52:56.619Z,1.00
2019-02-03T02:55:25.018Z,0.90
2019-02-03T02:57:53.484Z,0.90
2019-02-03T03:00:26.552Z,0.90
2019-02-03T03:02:55.055Z,0.90
2019-02-03T03:05:23.562Z,0.90
2019-02-03T03:07:52.051Z,0.90
2019-02-03T03:10:21.265Z,0.90
2019-02-03T03:12:50.009Z,0.90
2019-02-03T03:15:20.398Z,0.80
2019-02-03T03:17:49.351Z,0.80
2019-02-03T03:20:20.272Z,0.90
2019-02-03T03:22:49.328Z,0.90
2019-02-03T03:25:19.671Z,0.80
2019-02-03T03:27:48.124Z,0.90
2019-02-03T03:30:21.844Z,0.90
2019-02-03T03:32:50.300Z,0.90
2019-02-03T03:35:18.700Z,0.80
2019-02-03T03:37:47.203Z,0.90
2019-02-03T03:40:18.481Z,0.80
2019-02-03T03:42:46.943Z,0.90
2019-02-03T03:45:15.632Z,0.90
2019-02-03T03:47:44.166Z,0.90
2019-02-03T03:50:14.319Z,0.90
2019-02-03T03:52:42.719Z,0.90
2019-02-03T03:55:11.515Z,0.90
2019-02-03T03:57:39.964Z,0.90
2019-02-03T04:00:11.441Z,0.90
2019-02-03T04:02:39.859Z,0.90
2019-02-03T04:05:11.212Z,0.90
2019-02-03T04:07:39.658Z,0.90
2019-02-03T04:10:11.611Z,1.00
2019-02-03T04:12:40.064Z,1.00
2019-02-03T04:15:11.288Z,1.00
2019-02-03T04:17:40.061Z,1.00
2019-02-03T04:20:23.381Z,1.00
2019-02-03T04:22:52.175Z,1.10
2019-02-03T04:25:20.661Z,1.10
2019-02-03T04:27:49.129Z,1.10
2019-02-03T04:30:20.713Z,1.00
2019-02-03T04:32:49.110Z,1.10
2019-02-03T04:35:17.578Z,1.10
2019-02-03T04:37:45.980Z,1.10
2019-02-03T04:40:16.821Z,1.10
2019-02-03T04:42:45.771Z,1.10
2019-02-03T04:45:16.017Z,1.00
2019-02-03T04:47:44.578Z,1.00
2019-02-03T04:50:18.280Z,1.00
2019-02-03T04:52:46.683Z,1.00
2019-02-03T04:55:17.010Z,1.00
2019-02-03T04:57:45.414Z,1.00
2019-02-03T05:00:19.837Z,1.00
2019-02-03T05:02:48.283Z,1.00
2019-02-03T05:05:16.683Z,1.00
2019-02-03T05:07:45.178Z,1.00
2019-02-03T05:10:15.186Z,1.00
2019-02-03T05:12:43.674Z,0.90
2019-02-03T05:15:20.078Z,0.90
2019-02-03T05:17:48.867Z,0.90
2019-02-03T05:20:19.307Z,0.80
2019-02-03T05:22:47.988Z,0.80
2019-02-03T05:25:16.395Z,0.70
2019-02-03T05:27:44.896Z,0.70
2019-02-03T05:30:30.902Z,0.70
2019-02-03T05:32:59.752Z,0.80
2019-02-03T05:35:28.285Z,0.70
2019-02-03T05:37:56.740Z,0.70
2019-02-03T05:40:25.217Z,0.70
2019-02-03T05:42:53.682Z,0.70
2019-02-03T05:45:23.525Z,0.70
2019-02-03T05:47:52.371Z,0.70
2019-02-03T05:50:21.922Z,0.70
2019-02-03T05:52:50.748Z,0.70
2019-02-03T05:55:20.287Z,0.70
2019-02-03T05:57:48.790Z,0.60
2019-02-03T06:00:33.106Z,0.70
2019-02-03T06:03:01.512Z,0.60
2019-02-03T06:05:29.916Z,0.70
2019-02-03T06:07:58.306Z,0.70
2019-02-03T06:10:26.839Z,0.60
2019-02-03T06:12:55.248Z,0.70
2019-02-03T06:15:23.724Z,0.60
2019-02-03T06:17:52.205Z,0.60
2019-02-03T06:20:20.735Z,0.60
2019-02-03T06:22:49.281Z,0.60
2019-02-03T06:25:18.066Z,0.60
2019-02-03T06:27:46.469Z,0.60
2019-02-03T06:30:23.890Z,0.60
2019-02-03T06:32:52.297Z,0.60
2019-02-03T06:35:20.937Z,0.70
2019-02-03T06:37:49.428Z,0.70
2019-02-03T06:40:18.847Z,0.70
2019-02-03T06:42:47.303Z,0.70
2019-02-03T06:45:33.693Z,0.70
2019-02-03T06:48:02.100Z,0.60
2019-02-03T06:50:30.581Z,0.70
2019-02-03T06:52:59.287Z,0.70
2019-02-03T06:55:27.694Z,0.60
2019-02-03T06:57:56.367Z,0.60
2019-02-03T07:00:24.765Z,0.60
2019-02-03T07:02:53.165Z,0.60
2019-02-03T07:05:21.566Z,0.60
2019-02-03T07:07:50.226Z,0.60
2019-02-03T07:10:18.635Z,0.60
2019-02-03T07:12:47.067Z,0.60
2019-02-03T07:15:15.478Z,0.70
2019-02-03T07:17:44.124Z,0.70
2019-02-03T07:20:14.622Z,0.70
2019-02-03T07:22:43.045Z,0.70
2019-02-03T07:25:11.860Z,0.70
2019-02-03T07:27:40.504Z,0.80
2019-02-03T07:30:14.955Z,0.80
2019-02-03T07:32:43.666Z,0.80
2019-02-03T07:35:12.589Z,0.80
2019-02-03T07:37:40.993Z,0.70
2019-02-03T07:40:12.936Z,0.80
2019-02-03T07:42:41.462Z,0.80
2019-02-03T07:45:10.246Z,0.80
2019-02-03T07:47:38.666Z,0.90
2019-02-03T07:50:14.757Z,0.90
2019-02-03T07:52:43.179Z,0.90
2019-02-03T07:55:12.969Z,0.90
2019-02-03T07:57:41.367Z,0.90
2019-02-03T08:00:18.367Z,0.90
2019-02-03T08:02:47.062Z,0.90
2019-02-03T08:05:15.785Z,0.90
2019-02-03T08:07:44.178Z,0.90
2019-02-03T08:10:24.473Z,0.90
2019-02-03T08:12:46.027Z,0.90
2019-02-03T08:15:19.123Z,0.90
2019-02-03T08:17:47.758Z,1.00
2019-02-03T08:20:19.190Z,0.90
2019-02-03T08:22:47.588Z,0.90
2019-02-03T08:25:17.323Z,1.00
2019-02-03T08:27:46.014Z,1.10
2019-02-03T08:30:20.124Z,1.00
2019-02-03T08:32:48.588Z,1.00
2019-02-03T08:35:19.790Z,1.10
2019-02-03T08:37:47.121Z,1.10
2019-02-03T08:40:18.282Z,1.10
2019-02-03T08:42:46.766Z,1.20
2019-02-03T08:45:17.909Z,1.20
2019-02-03T08:47:46.303Z,1.20
2019-02-03T08:50:19.596Z,1.20
2019-02-03T08:52:51.177Z,1.40
2019-02-03T08:55:18.610Z,1.50
2019-02-03T08:57:47.022Z,1.50
2019-02-03T09:00:27.403Z,1.60
2019-02-03T09:02:55.805Z,1.50
2019-02-03T09:05:24.649Z,1.60
2019-02-03T09:07:53.055Z,1.60
2019-02-03T09:10:23.786Z,1.60
2019-02-03T09:12:52.207Z,1.70
2019-02-03T09:15:28.015Z,1.70
2019-02-03T09:17:56.483Z,1.80
2019-02-03T09:20:27.961Z,1.80
2019-02-03T09:22:56.526Z,2.00
2019-02-03T09:25:25.009Z,2.10
2019-02-03T09:27:53.559Z,2.30
2019-02-03T09:30:24.110Z,2.30
2019-02-03T09:32:52.942Z,2.30
2019-02-03T09:35:21.427Z,2.20
2019-02-03T09:37:50.091Z,2.10
2019-02-03T09:40:26.940Z,2.00
2019-02-03T09:42:55.593Z,1.90
2019-02-03T09:45:24.974Z,2.00
2019-02-03T09:47:53.442Z,2.00
2019-02-03T09:50:26.945Z,2.10
2019-02-03T09:52:57.262Z,2.10
2019-02-03T09:55:26.068Z,2.20
2019-02-03T09:57:54.866Z,2.20
2019-02-03T10:00:25.956Z,2.20
2019-02-03T10:02:55.894Z,2.20
2019-02-03T10:05:24.559Z,2.20
2019-02-03T10:07:53.111Z,2.20
2019-02-03T10:10:24.342Z,2.10
2019-02-03T10:12:52.751Z,2.20
2019-02-03T10:15:21.219Z,2.20
2019-02-03T10:17:49.624Z,2.20
2019-02-03T10:20:22.783Z,2.10
2019-02-03T10:22:51.314Z,2.10
2019-02-03T10:25:22.447Z,2.10
2019-02-03T10:27:51.474Z,2.20
2019-02-03T10:30:21.681Z,2.20
2019-02-03T10:32:50.908Z,2.40
2019-02-03T10:35:23.628Z,2.40
2019-02-03T10:37:51.987Z,2.50
2019-02-03T10:40:23.134Z,2.60
2019-02-03T10:42:53.374Z,2.70
2019-02-03T10:45:23.422Z,2.80
2019-02-03T10:47:52.103Z,2.80
2019-02-03T10:50:26.299Z,2.90
2019-02-03T10:52:54.852Z,2.90
2019-02-03T10:55:23.968Z,3.20
2019-02-03T10:57:52.641Z,3.20
2019-02-03T11:00:26.696Z,3.40
2019-02-03T11:02:55.247Z,3.60
2019-02-03T11:05:26.203Z,3.70
2019-02-03T11:07:55.053Z,3.80
2019-02-03T11:10:27.834Z,4.10
2019-02-03T11:12:56.307Z,4.20
2019-02-03T11:15:45.847Z,4.50
2019-02-03T11:18:14.685Z,4.00
2019-02-03T11:20:43.154Z,4.40
2019-02-03T11:23:11.556Z,4.70
2019-02-03T11:25:39.942Z,5.20
2019-02-03T11:28:08.410Z,5.70
2019-02-03T11:30:36.831Z,6.20
2019-02-03T11:33:08.924Z,6.70
2019-02-03T11:35:37.287Z,7.50
2019-02-03T11:38:06.255Z,7.40
2019-02-03T11:40:36.802Z,5.80
2019-02-03T11:43:06.430Z,5.70
2019-02-03T11:45:42.440Z,5.80
2019-02-03T11:48:14.192Z,5.30
2019-02-03T11:50:44.121Z,5.70
2019-02-03T11:53:15.096Z,5.00
2019-02-03T11:55:43.546Z,4.70
2019-02-03T11:58:17.910Z,4.50
2019-02-03T12:00:46.779Z,4.30
2019-02-03T12:03:15.409Z,4.10
2019-02-03T12:05:43.812Z,4.30
2019-02-03T12:08:12.458Z,4.50
2019-02-03T12:10:41.429Z,4.90
2019-02-03T12:13:10.182Z,4.90
2019-02-03T12:15:38.713Z,4.40
2019-02-03T12:18:15.270Z,4.10
2019-02-03T12:20:44.023Z,4.00
2019-02-03T12:23:12.715Z,3.70
2019-02-03T12:25:42.852Z,3.40
2019-02-03T12:28:11.723Z,3.50
2019-02-03T12:30:40.396Z,3.80
2019-02-03T12:33:09.191Z,3.90
2019-02-03T12:35:37.663Z,3.80
2019-02-03T12:38:06.756Z,4.00
2019-02-03T12:40:38.114Z,3.90
2019-02-03T12:43:06.984Z,4.10
2019-02-03T12:45:35.588Z,4.00
2019-02-03T12:48:05.848Z,4.10
2019-02-03T12:50:34.232Z,3.80
2019-02-03T12:53:02.868Z,3.80
2019-02-03T12:55:34.045Z,3.70
2019-02-03T12:58:02.442Z,3.60
2019-02-03T13:00:37.574Z,3.60
2019-02-03T13:03:08.106Z,3.90
2019-02-03T13:05:36.651Z,4.30
2019-02-03T13:08:06.268Z,5.10
2019-02-03T13:10:36.946Z,5.40
2019-02-03T13:13:06.496Z,4.80
2019-02-03T13:15:40.149Z,4.50
2019-02-03T13:18:09.026Z,4.20
2019-02-03T13:20:37.818Z,4.30
2019-02-03T13:23:06.978Z,4.20
2019-02-03T13:25:35.556Z,4.20
2019-02-03T13:28:04.734Z,4.30
2019-02-03T13:30:38.601Z,4.90
2019-02-03T13:33:07.443Z,5.00
2019-02-03T13:35:35.916Z,5.40
2019-02-03T13:38:04.972Z,5.50
2019-02-03T13:40:33.432Z,5.40
2019-02-03T13:43:02.365Z,5.60
2019-02-03T13:45:30.829Z,6.00
2019-02-03T13:47:59.945Z,5.50
2019-02-03T13:50:29.103Z,5.00
2019-02-03T13:52:57.822Z,4.80
2019-02-03T13:55:27.152Z,4.90
2019-02-03T13:57:55.979Z,4.40
2019-02-03T14:00:27.990Z,4.40
2019-02-03T14:02:56.748Z,4.30
2019-02-03T14:05:25.213Z,4.40
2019-02-03T14:07:53.741Z,4.50
2019-02-03T14:10:27.677Z,4.40
2019-02-03T14:12:57.135Z,4.40
2019-02-03T14:15:26.239Z,4.50
2019-02-03T14:17:54.701Z,4.50
2019-02-03T14:20:25.542Z,4.60
2019-02-03T14:22:54.115Z,4.60
2019-02-03T14:25:23.062Z,4.60
2019-02-03T14:27:51.638Z,4.30
2019-02-03T14:30:22.539Z,4.30
2019-02-03T14:32:50.993Z,4.30
2019-02-03T14:35:19.460Z,4.50
2019-02-03T14:37:47.856Z,4.30
2019-02-03T14:40:19.034Z,4.30
2019-02-03T14:42:48.496Z,4.10
2019-02-03T14:45:20.089Z,4.10
2019-02-03T14:47:49.871Z,4.00
2019-02-03T14:50:23.863Z,4.00
2019-02-03T14:52:58.507Z,4.00
2019-02-03T14:55:30.190Z,4.00
2019-02-03T14:57:58.587Z,4.00
2019-02-03T15:00:29.710Z,4.00
2019-02-03T15:02:59.045Z,3.90
2019-02-03T15:05:28.024Z,3.80
2019-02-03T15:07:56.422Z,3.80
2019-02-03T15:10:24.862Z,3.80
2019-02-03T15:12:53.314Z,3.80
2019-02-03T15:15:27.369Z,3.80
2019-02-03T15:17:56.141Z,3.80
2019-02-03T15:20:26.074Z,3.80
2019-02-03T15:22:54.611Z,3.80
2019-02-03T15:25:23.369Z,3.70
2019-02-03T15:27:51.757Z,3.60
2019-02-03T15:30:45.097Z,3.60
2019-02-03T15:33:13.482Z,3.50
2019-02-03T15:35:41.873Z,3.50
2019-02-03T15:38:10.338Z,3.50
2019-02-03T15:40:38.812Z,3.50
2019-02-03T15:43:07.528Z,3.50
2019-02-03T15:45:35.988Z,3.40
2019-02-03T15:48:05.552Z,3.50
2019-02-03T15:50:34.299Z,3.40
2019-02-03T15:53:02.999Z,3.40
2019-02-03T15:55:37.264Z,3.30
2019-02-03T15:58:08.159Z,3.30
2019-02-03T16:00:48.274Z,3.30
2019-02-03T16:03:16.659Z,3.20
2019-02-03T16:05:45.098Z,3.20
2019-02-03T16:08:13.754Z,3.20
2019-02-03T16:10:42.604Z,3.20
2019-02-03T16:13:12.066Z,3.10
2019-02-03T16:15:40.466Z,3.10
2019-02-03T16:18:09.640Z,3.00
2019-02-03T16:20:38.021Z,3.00
2019-02-03T16:23:06.651Z,3.00
2019-02-03T16:25:36.276Z,2.90
2019-02-03T16:28:05.430Z,2.90
2019-02-03T16:30:41.051Z,2.90
2019-02-03T16:33:13.337Z,2.90
2019-02-03T16:35:42.030Z,2.80
2019-02-03T16:38:22.808Z,2.80
2019-02-03T16:40:41.889Z,2.80
2019-02-03T16:43:10.301Z,2.80
2019-02-03T16:45:40.908Z,2.80
2019-02-03T16:48:09.393Z,2.80
2019-02-03T16:50:37.874Z,2.70
2019-02-03T16:53:07.890Z,2.70
2019-02-03T16:55:36.524Z,2.60
2019-02-03T16:58:05.810Z,2.60
2019-02-03T17:00:34.210Z,2.60
2019-02-03T17:03:03.145Z,2.60
2019-02-03T17:05:31.982Z,2.50
2019-02-03T17:08:09.133Z,2.50
2019-02-03T17:10:37.808Z,2.50
2019-02-03T17:13:06.482Z,2.50
2019-02-03T17:15:38.186Z,2.50
2019-02-03T17:18:08.814Z,2.50
2019-02-03T17:20:37.506Z,2.50
2019-02-03T17:23:06.481Z,2.50
2019-02-03T17:25:44.303Z,2.60
2019-02-03T17:28:13.136Z,2.50
2019-02-03T17:30:41.536Z,2.50
2019-02-03T17:33:16.713Z,2.40
2019-02-03T17:35:53.953Z,2.40
2019-02-03T17:38:15.230Z,2.30
2019-02-03T17:40:44.626Z,2.30
2019-02-03T17:43:13.092Z,2.20
2019-02-03T17:45:41.469Z,2.20
2019-02-03T17:48:09.950Z,2.10
2019-02-03T17:50:38.369Z,2.10
2019-02-03T17:53:07.158Z,2.10
2019-02-03T17:55:35.551Z,2.00
2019-02-03T17:58:04.310Z,2.00
2019-02-03T18:00:38.068Z,2.00
2019-02-03T18:03:06.999Z,2.00
2019-02-03T18:05:35.449Z,2.00
2019-02-03T18:08:04.707Z,1.90
2019-02-03T18:10:33.477Z,1.90
2019-02-03T18:13:02.863Z,1.90
2019-02-03T18:15:31.242Z,1.90
2019-02-03T18:20:57.899Z,1.90
2019-02-03T18:23:54.865Z,1.90
2019-02-03T18:26:45.778Z,2.00
2019-02-03T18:29:19.958Z,1.90
2019-02-03T18:31:50.674Z,1.90
2019-02-03T18:34:19.425Z,1.90
2019-02-03T18:36:49.974Z,1.80
2019-02-03T18:39:23.009Z,1.70
2019-02-03T18:41:51.749Z,1.70
2019-02-03T18:44:22.103Z,1.70
2019-02-03T18:46:52.758Z,1.60
2019-02-03T18:52:14.728Z,1.60
2019-02-03T18:54:46.570Z,1.60
2019-02-03T18:57:19.516Z,1.60
2019-02-03T18:59:49.786Z,1.60
2019-02-03T19:02:18.805Z,1.60
2019-02-03T19:04:51.961Z,1.60
2019-02-03T19:07:24.915Z,1.60
2019-02-03T19:09:53.727Z,1.60
2019-02-03T19:12:24.195Z,1.60
2019-02-03T19:17:54.416Z,1.60
2019-02-03T19:20:34.211Z,1.60
2019-02-03T19:23:03.087Z,1.50
2019-02-03T19:25:34.927Z,1.50
2019-02-03T19:28:03.714Z,1.50
2019-02-03T19:33:23.355Z,1.20
2019-02-03T19:38:44.021Z,0.90
2019-02-03T19:41:12.467Z,0.80
2019-02-03T19:43:44.185Z,0.70
2019-02-03T19:46:24.206Z,0.80
2019-02-03T19:48:52.799Z,0.80
2019-02-03T19:51:21.414Z,0.80
2019-02-03T19:53:49.864Z,0.80
2019-02-03T19:56:18.580Z,0.80
2019-02-03T19:58:47.018Z,0.80
2019-02-03T20:01:15.413Z,0.80
2019-02-03T20:03:44.007Z,0.80
2019-02-03T20:06:12.413Z,0.80
2019-02-03T20:08:40.803Z,0.80
2019-02-03T20:11:09.274Z,0.90
2019-02-03T20:13:37.671Z,0.80
2019-02-03T20:16:06.279Z,0.80
2019-02-03T20:18:34.960Z,0.80
2019-02-03T20:21:03.424Z,0.80
2019-02-03T20:23:32.870Z,0.80
2019-02-03T20:26:01.329Z,0.70
2019-02-03T20:28:29.886Z,0.70
2019-02-03T20:30:58.353Z,0.60
2019-02-03T20:33:27.233Z,0.60
2019-02-03T20:35:55.658Z,0.50
2019-02-03T20:38:24.042Z,0.40
2019-02-03T20:40:52.467Z,0.30
2019-02-03T20:43:21.890Z,0.10
2019-02-03T20:45:50.350Z,0.10
2019-02-03T20:48:19.054Z,0.10
2019-02-03T20:50:47.530Z,0.00
2019-02-03T20:53:15.915Z,0.00
2019-02-03T20:55:44.606Z,-0.20
2019-02-03T20:58:14.025Z,-0.20
2019-02-03T21:00:42.601Z,-0.40
2019-02-03T21:03:11.086Z,-0.50
2019-02-03T21:05:39.626Z,-0.60
2019-02-03T21:08:08.043Z,-0.70
2019-02-03T21:10:36.786Z,-0.70
2019-02-03T21:13:11.302Z,-0.90
2019-02-03T21:15:36.323Z,-0.90
2019-02-03T21:18:07.727Z,-1.00
2019-02-03T21:20:35.319Z,-1.10
2019-02-03T21:23:04.320Z,-1.20
2019-02-03T21:25:33.036Z,-1.10
2019-02-03T21:28:01.722Z,-1.20
2019-02-03T21:30:35.326Z,-1.30
2019-02-03T21:33:04.277Z,-1.20
2019-02-03T21:35:34.829Z,-1.30
2019-02-03T21:38:05.173Z,-1.40
2019-02-03T21:40:33.712Z,-1.40
2019-02-03T21:43:02.436Z,-1.40
2019-02-03T21:45:30.840Z,-1.40
2019-02-03T21:47:59.629Z,-1.50
2019-02-03T21:50:30.342Z,-1.60
2019-02-03T21:52:58.777Z,-1.60
2019-02-03T21:55:27.821Z,-1.60
2019-02-03T21:57:56.531Z,-1.70
2019-02-03T22:00:32.999Z,-1.70
2019-02-03T22:03:01.758Z,-1.70
2019-02-03T22:05:36.141Z,-1.70
2019-02-03T22:08:05.321Z,-1.80
2019-02-03T22:10:39.889Z,-1.80
2019-02-03T22:13:08.606Z,-1.80
2019-02-03T22:15:38.196Z,-1.90
2019-02-03T22:18:07.033Z,-1.90
2019-02-03T22:20:35.442Z,-1.90
2019-02-03T22:23:05.123Z,-1.90
2019-02-03T22:25:34.030Z,-1.90
2019-02-03T22:28:02.421Z,-1.90
2019-02-03T22:30:38.678Z,-2.00
2019-02-03T22:33:07.151Z,-2.10
2019-02-03T22:35:35.618Z,-2.10
2019-02-03T22:38:04.269Z,-2.10
2019-02-03T22:40:32.678Z,-2.10
2019-02-03T22:43:08.034Z,-2.10
2019-02-03T22:45:36.677Z,-2.20
2019-02-03T22:48:06.245Z,-2.20
2019-02-03T22:50:34.709Z,-2.30
2019-02-03T22:53:03.353Z,-2.20
2019-02-03T22:55:31.930Z,-2.30
2019-02-03T22:58:00.457Z,-2.30
2019-02-03T23:00:52.299Z,-2.40
2019-02-03T23:03:23.685Z,-2.40
2019-02-03T23:05:53.226Z,-2.40
2019-02-03T23:08:21.598Z,-2.40
2019-02-03T23:10:50.310Z,-2.40
2019-02-03T23:13:18.966Z,-2.50
2019-02-03T23:15:48.043Z,-2.50
2019-02-03T23:18:16.680Z,-2.50
2019-02-03T23:20:45.558Z,-2.60
2019-02-03T23:23:13.949Z,-2.60
2019-02-03T23:25:42.422Z,-2.60
2019-02-03T23:28:11.058Z,-2.60
2019-02-03T23:30:39.840Z,-2.60
2019-02-03T23:33:08.478Z,-2.50
2019-02-03T23:35:36.896Z,-2.40
2019-02-03T23:38:05.293Z,-2.30
2019-02-03T23:40:33.694Z,-2.30
2019-02-03T23:43:02.095Z,-2.20
2019-02-03T23:45:30.996Z,-2.10
2019-02-03T23:47:59.458Z,-2.10
2019-02-03T23:50:27.853Z,-2.00
2019-02-03T23:52:56.261Z,-1.80
2019-02-03T23:55:24.654Z,-1.70
2019-02-03T23:57:53.398Z,-1.60
